Time;durP1;ratioP1;P1;durP2;ratioP2;P2;SDS_P1;SDS_P2;PMS_P1;PMS_P2;Temp;Humidity;BMP_temperature;BMP_pressure;BME280_temperature;BME280_humidity;BME280_pressure;Samples;Min_cycle;Max_cycle;Signal;HPM_P1;HPM_P2
2022/12/08 00:01:21;;;;;;;11.50;7.50;;;;;;;2.46;100.00;98452.46;105949;1290;59925;-75
2022/12/08 00:03:48;;;;;;;11.60;7.70;;;;;;;2.48;100.00;98449.92;105767;1288;65227;-75
2022/12/08 00:09:40;;;;;;;8.90;7.10;;;;;;;2.52;100.00;98456.45;105828;1291;60131;-75
2022/12/08 00:12:12;;;;;;;8.60;6.70;;;;;;;2.53;100.00;98456.75;105674;1293;74925;-74
2022/12/08 00:14:41;;;;;;;8.50;6.70;;;;;;;2.54;100.00;98451.98;105917;1290;61162;-75
2022/12/08 00:17:09;;;;;;;10.20;6.80;;;;;;;2.55;100.00;98450.52;105916;1290;73919;-75
2022/12/08 00:19:38;;;;;;;8.00;6.20;;;;;;;2.57;100.00;98449.73;105911;1290;60118;-74
2022/12/08 00:22:05;;;;;;;8.70;6.50;;;;;;;2.58;100.00;98454.60;105915;1290;61442;-74
2022/12/08 00:24:34;;;;;;;9.40;6.90;;;;;;;2.57;100.00;98450.77;105920;1290;66864;-75
2022/12/08 00:27:01;;;;;;;9.10;6.80;;;;;;;2.56;100.00;98454.84;105918;1290;68456;-74
2022/12/08 00:29:27;;;;;;;9.20;6.40;;;;;;;2.56;100.00;98458.20;105940;1291;65248;-74
2022/12/08 00:31:53;;;;;;;8.80;6.10;;;;;;;2.57;100.00;98463.07;105636;1286;59962;-74
2022/12/08 00:34:19;;;;;;;7.20;6.40;;;;;;;2.55;100.00;98463.30;105897;1283;59688;-74
2022/12/08 00:36:46;;;;;;;8.40;6.80;;;;;;;2.54;100.00;98464.23;105927;1284;60055;-74
2022/12/08 00:39:13;;;;;;;8.60;6.70;;;;;;;2.54;100.00;98464.42;105780;1292;59767;-75
2022/12/08 00:44:24;;;;;;;9.80;6.50;;;;;;;2.50;100.00;98473.88;105919;1283;59780;-75
2022/12/08 00:46:50;;;;;;;11.20;6.90;;;;;;;2.48;100.00;98477.67;105611;1297;60136;-73
2022/12/08 00:49:16;;;;;;;7.60;6.20;;;;;;;2.46;100.00;98477.05;105933;1283;59721;-74
2022/12/08 00:51:43;;;;;;;8.10;7.20;;;;;;;2.44;100.00;98479.95;105922;1290;59998;-76
2022/12/08 00:54:09;;;;;;;9.30;6.70;;;;;;;2.41;100.00;98483.01;105911;1297;59701;-75
2022/12/08 00:56:36;;;;;;;8.40;6.10;;;;;;;2.39;100.00;98483.79;105931;1283;59735;-74
2022/12/08 00:59:05;;;;;;;7.50;5.90;;;;;;;2.37;100.00;98487.58;105704;1287;59686;-74
2022/12/08 01:01:31;;;;;;;7.50;5.20;;;;;;;2.35;100.00;98490.29;105884;1291;66895;-74
2022/12/08 01:04:01;;;;;;;7.10;6.20;;;;;;;2.33;100.00;98497.19;105932;1291;69849;-74
2022/12/08 01:06:27;;;;;;;7.70;5.40;;;;;;;2.31;100.00;98497.46;105904;1296;65044;-75
2022/12/08 01:08:53;;;;;;;9.70;6.10;;;;;;;2.31;100.00;98498.02;105927;1290;59813;-75
2022/12/08 01:11:19;;;;;;;8.00;6.70;;;;;;;2.31;100.00;98499.92;105942;1290;59787;-75
2022/12/08 01:13:45;;;;;;;7.70;6.20;;;;;;;2.31;100.00;98498.70;105937;1283;59795;-75
2022/12/08 01:16:19;;;;;;;9.00;6.60;;;;;;;2.30;100.00;98497.67;105928;1290;59706;-75
2022/12/08 01:18:45;;;;;;;8.30;6.80;;;;;;;2.30;100.00;98498.23;105937;1291;64260;-75
2022/12/08 01:21:11;;;;;;;11.00;6.60;;;;;;;2.29;100.00;98495.27;105925;1291;59658;-75
2022/12/08 01:23:37;;;;;;;10.50;8.70;;;;;;;2.26;100.00;98500.13;105949;1290;59666;-75
2022/12/08 01:26:09;;;;;;;9.20;7.10;;;;;;;2.22;100.00;98504.50;105943;1274;60162;-75
2022/12/08 01:28:34;;;;;;;8.70;7.50;;;;;;;2.16;100.00;98500.52;105932;1290;60012;-75
2022/12/08 01:31:01;;;;;;;10.30;7.90;;;;;;;2.11;100.00;98499.34;105912;1291;59958;-75
2022/12/08 01:33:28;;;;;;;8.80;6.70;;;;;;;2.04;100.00;98499.44;105930;1291;59898;-75
2022/12/08 01:35:55;;;;;;;8.60;6.40;;;;;;;1.97;100.00;98501.13;105942;1283;59528;-75
2022/12/08 01:38:21;;;;;;;9.50;6.50;;;;;;;1.91;100.00;98500.86;105947;1283;67880;-75
2022/12/08 01:40:48;;;;;;;8.20;7.00;;;;;;;1.87;100.00;98498.21;105944;1284;59883;-75
2022/12/08 01:43:19;;;;;;;8.70;6.90;;;;;;;1.87;100.00;98502.24;105928;1291;59623;-74
2022/12/08 01:45:45;;;;;;;11.60;7.80;;;;;;;1.89;100.00;98500.41;105946;1284;59585;-74
2022/12/08 01:48:18;;;;;;;9.70;7.90;;;;;;;1.91;100.00;98498.21;105927;1291;59759;-74
2022/12/08 01:50:46;;;;;;;9.60;7.00;;;;;;;1.95;100.00;98494.23;105938;1290;67987;-73
2022/12/08 01:53:21;;;;;;;9.40;7.40;;;;;;;1.98;100.00;98493.22;105899;1283;67843;-73
2022/12/08 01:55:54;;;;;;;10.10;7.10;;;;;;;2.01;100.00;98490.27;105913;1290;64121;-73
2022/12/08 01:58:27;;;;;;;9.00;6.70;;;;;;;2.04;100.00;98491.39;105963;1290;59642;-73
2022/12/08 02:00:53;;;;;;;11.80;7.50;;;;;;;2.06;100.00;98496.23;105943;1287;59740;-73
2022/12/08 02:03:35;;;;;;;9.50;7.60;;;;;;;2.06;100.00;98497.62;105939;1290;59790;-74
2022/12/08 02:06:02;;;;;;;7.90;6.20;;;;;;;2.07;100.00;98498.30;105820;1292;60165;-74
2022/12/08 02:08:30;;;;;;;9.40;6.70;;;;;;;2.08;100.00;98500.52;105947;1290;65013;-74
2022/12/08 02:10:56;;;;;;;9.70;7.50;;;;;;;2.10;100.00;98500.42;105933;1274;60017;-74
2022/12/08 02:13:23;;;;;;;8.30;6.50;;;;;;;2.11;100.00;98501.79;105732;1293;59679;-74
2022/12/08 02:16:26;;;;;;;9.50;7.30;;;;;;;2.11;100.00;98494.42;105945;1275;60122;-73
2022/12/08 02:19:19;;;;;;;8.70;7.30;;;;;;;2.09;100.00;98491.20;105913;1291;67716;-74
2022/12/08 02:22:06;;;;;;;8.90;7.30;;;;;;;2.05;100.00;98496.77;105314;1298;65250;-73
2022/12/08 02:24:46;;;;;;;12.20;7.40;;;;;;;1.99;100.00;98497.21;105299;1299;59929;-74
2022/12/08 02:27:37;;;;;;;10.70;7.10;;;;;;;1.92;100.00;98496.40;105189;1305;60240;-74
2022/12/08 02:30:19;;;;;;;10.80;7.70;;;;;;;1.87;100.00;98495.56;105304;1292;67868;-75
2022/12/08 02:33:05;;;;;;;9.20;7.60;;;;;;;1.82;100.00;98497.67;105290;1298;59901;-75
2022/12/08 02:36:00;;;;;;;10.00;7.90;;;;;;;1.76;100.00;98498.98;104901;1303;73872;-72
2022/12/08 02:38:50;;;;;;;10.40;8.60;;;;;;;1.72;100.00;98502.11;104268;1309;59990;-73
2022/12/08 02:41:25;;;;;;;10.20;7.10;;;;;;;1.68;100.00;98502.98;104275;1308;59852;-74
2022/12/08 02:44:05;;;;;;;9.90;8.40;;;;;;;1.62;100.00;98501.61;104310;1309;68068;-75
2022/12/08 02:46:41;;;;;;;;;;;;;;;1.57;100.00;98504.63;104337;1309;61670;-73
2022/12/08 02:49:07;;;;;;;9.60;7.80;;;;;;;1.50;100.00;98507.84;104262;1314;64100;-74
2022/12/08 02:51:33;;;;;;;9.70;7.60;;;;;;;1.46;100.00;98503.96;104293;1309;60278;-73
2022/12/08 02:54:00;;;;;;;10.10;8.20;;;;;;;1.43;100.00;98503.23;104325;1309;59752;-74
2022/12/08 02:56:41;;;;;;;11.30;9.50;;;;;;;1.41;100.00;98502.29;104293;1309;68080;-74
2022/12/08 02:59:24;;;;;;;11.50;8.10;;;;;;;1.39;100.00;98501.98;104477;1306;62008;-74
2022/12/08 03:02:05;;;;;;;10.80;8.90;;;;;;;1.38;100.00;98503.61;104791;1313;65032;-74
2022/12/08 03:04:49;;;;;;;11.20;8.20;;;;;;;1.36;100.00;98501.20;104791;1306;59807;-75
2022/12/08 03:07:30;;;;;;;11.50;9.40;;;;;;;1.36;100.00;98504.39;104798;1306;59704;-74
2022/12/08 03:10:05;;;;;;;10.50;8.40;;;;;;;1.36;100.00;98503.15;104802;1302;66851;-75
2022/12/08 03:12:41;;;;;;;11.50;8.70;;;;;;;1.37;100.00;98498.04;104952;1304;61132;-74
2022/12/08 03:15:12;;;;;;;10.80;8.30;;;;;;;1.35;100.00;98490.77;105490;1291;72928;-75
2022/12/08 03:17:42;;;;;;;10.40;8.40;;;;;;;1.34;100.00;98490.80;105908;1287;59733;-75
2022/12/08 03:20:10;;;;;;;;;;;;;;;1.32;100.00;98490.87;105672;1280;60686;-75
2022/12/08 03:22:38;;;;;;;13.20;9.40;;;;;;;1.30;100.00;98493.92;105945;1291;76697;-75
2022/12/08 03:25:06;;;;;;;12.30;9.30;;;;;;;1.28;100.00;98492.04;105931;1283;68787;-75
2022/12/08 03:27:32;;;;;;;11.20;9.30;;;;;;;1.28;100.00;98491.70;105955;1291;62621;-74
2022/12/08 03:29:59;;;;;;;10.60;8.50;;;;;;;1.28;100.00;98495.73;105956;1290;60074;-73
2022/12/08 03:32:46;;;;;;;13.10;8.60;;;;;;;1.29;100.00;98495.17;105954;1290;59741;-74
2022/12/08 03:35:21;;;;;;;12.50;8.90;;;;;;;1.33;100.00;98496.11;105952;1283;66950;-75
2022/12/08 03:37:47;;;;;;;12.90;9.30;;;;;;;1.35;100.00;98489.03;105915;1290;68853;-75
2022/12/08 03:40:16;;;;;;;12.50;9.30;;;;;;;1.36;100.00;98488.27;105939;1286;59939;-75
2022/12/08 03:42:42;;;;;;;11.10;8.90;;;;;;;1.38;100.00;98480.85;105950;1291;60065;-75
2022/12/08 03:45:08;;;;;;;12.80;10.10;;;;;;;1.39;100.00;98478.71;105951;1290;59862;-75
2022/12/08 03:47:35;;;;;;;12.90;10.30;;;;;;;1.39;100.00;98477.31;105943;1287;59712;-75
2022/12/08 03:50:02;;;;;;;13.80;11.00;;;;;;;1.38;100.00;98481.18;105951;1291;59740;-75
2022/12/08 03:52:28;;;;;;;14.60;11.60;;;;;;;1.37;100.00;98477.73;105788;1293;64312;-76
2022/12/08 03:54:55;;;;;;;15.80;11.90;;;;;;;1.36;100.00;98475.33;105920;1291;59786;-75
2022/12/08 03:57:21;;;;;;;19.80;13.60;;;;;;;1.36;100.00;98474.81;105850;1290;59903;-74
2022/12/08 03:59:46;;;;;;;18.00;13.70;;;;;;;1.35;100.00;98473.10;105943;1283;59687;-75
2022/12/08 04:02:13;;;;;;;15.90;13.00;;;;;;;1.34;100.00;98472.76;105959;1286;59808;-75
2022/12/08 04:04:39;;;;;;;12.50;11.30;;;;;;;1.35;100.00;98476.27;105924;1283;59730;-74
2022/12/08 04:07:04;;;;;;;12.90;11.30;;;;;;;1.35;100.00;98477.30;105932;1285;59735;-75
2022/12/08 04:09:31;;;;;;;14.50;11.50;;;;;;;1.35;100.00;98482.20;105914;1290;59696;-75
2022/12/08 04:11:57;;;;;;;12.60;11.30;;;;;;;1.34;100.00;98478.71;105719;1293;59877;-74
2022/12/08 04:14:23;;;;;;;15.60;12.30;;;;;;;1.34;100.00;98474.89;105920;1284;59735;-74
2022/12/08 04:16:49;;;;;;;16.80;12.50;;;;;;;1.32;100.00;98474.77;105915;1291;60070;-75
2022/12/08 04:19:15;;;;;;;14.40;12.60;;;;;;;1.31;100.00;98479.19;105933;1283;59759;-75
2022/12/08 04:21:41;;;;;;;14.60;13.00;;;;;;;1.29;100.00;98479.93;105962;1291;59697;-74
2022/12/08 04:24:08;;;;;;;18.80;13.90;;;;;;;1.28;100.00;98478.44;105943;1291;59732;-74
2022/12/08 04:26:33;;;;;;;16.10;14.40;;;;;;;1.27;100.00;98476.88;105939;1290;60036;-74
2022/12/08 04:29:00;;;;;;;19.40;17.30;;;;;;;1.27;100.00;98475.49;105947;1290;60623;-74
2022/12/08 04:31:25;;;;;;;19.60;17.00;;;;;;;1.25;100.00;98476.77;105935;1283;59744;-74
2022/12/08 04:33:51;;;;;;;18.60;15.50;;;;;;;1.23;100.00;98477.40;105932;1290;60072;-74
2022/12/08 04:36:17;;;;;;;17.00;14.60;;;;;;;1.21;100.00;98476.93;105958;1290;59722;-74
2022/12/08 04:38:43;;;;;;;18.80;15.20;;;;;;;1.20;100.00;98476.79;105979;1290;59834;-74
2022/12/08 04:41:09;;;;;;;19.50;15.60;;;;;;;1.18;100.00;98473.00;105681;1294;60295;-75
2022/12/08 04:43:35;;;;;;;20.90;17.60;;;;;;;1.17;100.00;98469.91;105934;1282;59921;-74
2022/12/08 04:46:05;;;;;;;18.40;15.30;;;;;;;1.16;100.00;98469.95;105942;1290;59719;-75
2022/12/08 04:48:31;;;;;;;16.60;13.40;;;;;;;1.13;100.00;98467.41;105913;1283;65226;-74
2022/12/08 04:50:57;;;;;;;16.80;12.90;;;;;;;1.11;100.00;98466.82;105919;1291;59818;-75
2022/12/08 04:53:23;;;;;;;16.70;13.60;;;;;;;1.08;100.00;98464.64;105934;1283;59693;-75
2022/12/08 04:55:49;;;;;;;17.30;13.60;;;;;;;1.04;100.00;98464.42;105943;1289;59833;-74
2022/12/08 04:58:17;;;;;;;15.40;12.40;;;;;;;1.00;100.00;98463.71;105963;1291;59689;-74
2022/12/08 05:00:44;;;;;;;15.40;13.60;;;;;;;0.97;100.00;98465.07;105927;1287;65859;-74
2022/12/08 05:03:10;;;;;;;19.40;14.90;;;;;;;0.94;100.00;98464.65;105924;1291;59753;-74
2022/12/08 05:05:36;;;;;;;19.50;14.30;;;;;;;0.90;100.00;98466.36;105913;1292;59709;-74
2022/12/08 05:08:02;;;;;;;19.60;14.50;;;;;;;0.86;100.00;98469.28;105939;1291;60036;-74
2022/12/08 05:10:28;;;;;;;18.40;14.10;;;;;;;0.83;100.00;98467.83;105208;1288;1002364;-74
2022/12/08 05:12:54;;;;;;;19.40;15.50;;;;;;;0.79;100.00;98465.33;105929;1283;59818;-73
2022/12/08 05:15:20;;;;;;;23.30;15.70;;;;;;;0.78;100.00;98464.86;105914;1290;59629;-74
2022/12/08 05:17:46;;;;;;;19.40;15.70;;;;;;;0.76;100.00;98467.38;105957;1283;59549;-74
2022/12/08 05:20:12;;;;;;;25.70;17.80;;;;;;;0.75;100.00;98464.27;105938;1287;60173;-75
2022/12/08 05:22:38;;;;;;;24.80;20.50;;;;;;;0.73;100.00;98456.29;105940;1282;59737;-75
2022/12/08 05:25:05;;;;;;;25.40;20.70;;;;;;;0.72;100.00;98452.49;105963;1292;59944;-74
2022/12/08 05:27:31;;;;;;;26.20;20.80;;;;;;;0.69;100.00;98450.69;105967;1291;59672;-74
2022/12/08 05:29:57;;;;;;;25.40;18.70;;;;;;;0.66;100.00;98452.72;105931;1290;59713;-75
2022/12/08 05:32:23;;;;;;;25.20;21.20;;;;;;;0.61;100.00;98465.61;105926;1291;59795;-75
2022/12/08 05:34:49;;;;;;;23.60;18.70;;;;;;;0.57;100.00;98467.88;105845;1285;60159;-74
2022/12/08 05:37:15;;;;;;;25.80;19.00;;;;;;;0.54;100.00;98467.64;105929;1291;59780;-75
2022/12/08 05:39:41;;;;;;;27.30;19.60;;;;;;;0.50;100.00;98474.77;105956;1280;59675;-75
2022/12/08 05:42:07;;;;;;;23.90;18.80;;;;;;;0.49;100.00;98476.04;105963;1289;59700;-74
2022/12/08 05:44:33;;;;;;;25.80;19.70;;;;;;;0.47;100.00;98476.80;105940;1291;59802;-73
2022/12/08 05:46:59;;;;;;;23.80;18.50;;;;;;;0.44;100.00;98479.34;105922;1297;59670;-74
2022/12/08 05:49:25;;;;;;;22.00;19.30;;;;;;;0.43;100.00;98481.30;105931;1290;59720;-75
2022/12/08 05:51:51;;;;;;;20.30;17.70;;;;;;;0.40;100.00;98483.48;105940;1285;59884;-75
2022/12/08 05:54:17;;;;;;;24.40;21.90;;;;;;;0.37;100.00;98486.73;105766;1289;59706;-74
2022/12/08 05:56:43;;;;;;;29.50;25.40;;;;;;;0.39;100.00;98487.04;105941;1285;60005;-75
2022/12/08 05:59:09;;;;;;;25.20;20.90;;;;;;;0.42;100.00;98480.47;105907;1289;59714;-75
2022/12/08 06:01:35;;;;;;;23.20;19.60;;;;;;;0.46;100.00;98485.22;102971;1284;1002700;-75
2022/12/08 06:04:03;;;;;;;19.50;16.70;;;;;;;0.47;100.00;98485.38;106012;1289;59690;-74
2022/12/08 06:06:30;;;;;;;19.00;16.80;;;;;;;0.44;100.00;98486.15;105920;1291;64112;-74
2022/12/08 06:08:56;;;;;;;19.70;16.90;;;;;;;0.42;100.00;98492.15;105937;1283;59667;-74
2022/12/08 06:11:25;;;;;;;24.80;19.10;;;;;;;0.42;100.00;98494.45;105927;1291;59610;-75
2022/12/08 06:13:52;;;;;;;25.40;21.00;;;;;;;0.39;100.00;98495.57;105920;1291;76523;-75
2022/12/08 06:16:18;;;;;;;29.70;25.50;;;;;;;0.38;100.00;98494.05;105780;1291;59660;-75
2022/12/08 06:18:45;;;;;;;34.90;27.30;;;;;;;0.38;100.00;98497.71;105701;1294;59950;-75
2022/12/08 06:21:13;;;;;;;39.30;32.40;;;;;;;0.38;100.00;98494.92;105916;1288;59612;-75
2022/12/08 06:23:39;;;;;;;38.00;30.50;;;;;;;0.38;100.00;98495.11;105955;1291;59715;-75
2022/12/08 06:26:12;;;;;;;40.20;31.40;;;;;;;0.36;100.00;98499.52;105653;1294;59772;-75
2022/12/08 06:28:40;;;;;;;37.10;30.20;;;;;;;0.33;100.00;98504.17;105889;1291;60411;-74
2022/12/08 06:31:13;;;;;;;42.80;32.10;;;;;;;0.31;100.00;98507.20;105928;1291;65126;-74
2022/12/08 06:33:39;;;;;;;44.60;34.60;;;;;;;0.33;100.00;98502.79;105950;1289;59718;-75
2022/12/08 06:36:06;;;;;;;39.30;28.60;;;;;;;0.34;100.00;98505.54;105724;1294;59689;-74
2022/12/08 06:38:33;;;;;;;44.10;31.30;;;;;;;0.37;100.00;98510.86;105751;1284;60589;-75
2022/12/08 06:40:59;;;;;;;33.50;28.30;;;;;;;0.39;100.00;98507.46;105881;1283;68627;-76
2022/12/08 06:43:26;;;;;;;38.60;29.40;;;;;;;0.36;100.00;98506.17;105910;1290;65139;-75
2022/12/08 06:45:52;;;;;;;34.00;27.30;;;;;;;0.31;100.00;98505.11;105914;1297;59846;-75
2022/12/08 06:48:18;;;;;;;32.80;26.80;;;;;;;0.26;100.00;98507.03;105974;1290;59726;-76
2022/12/08 06:50:44;;;;;;;34.10;27.20;;;;;;;0.19;100.00;98512.83;105924;1291;59849;-74
2022/12/08 06:53:12;;;;;;;35.90;28.10;;;;;;;0.15;100.00;98509.84;105951;1285;59883;-75
2022/12/08 06:55:50;;;;;;;38.30;30.60;;;;;;;0.12;100.00;98513.09;105917;1289;65275;-75
2022/12/08 06:58:17;;;;;;;34.20;28.90;;;;;;;0.10;100.00;98516.99;105935;1295;59922;-75
2022/12/08 07:00:43;;;;;;;37.40;28.90;;;;;;;0.11;100.00;98517.64;105939;1291;59690;-74
2022/12/08 07:03:11;;;;;;;36.10;29.00;;;;;;;0.13;100.00;98519.67;105928;1297;59676;-74
2022/12/08 07:05:37;;;;;;;37.20;28.50;;;;;;;0.15;100.00;98518.56;105771;1292;67448;-74
2022/12/08 07:08:05;;;;;;;34.60;28.60;;;;;;;0.18;100.00;98516.02;105927;1292;72630;-74
2022/12/08 07:10:32;;;;;;;44.00;31.30;;;;;;;0.25;100.00;98522.42;105921;1287;59705;-74
2022/12/08 07:12:59;;;;;;;38.80;30.40;;;;;;;0.31;100.00;98518.03;105947;1291;59761;-75
2022/12/08 07:15:24;;;;;;;38.20;30.40;;;;;;;0.40;100.00;98522.29;105777;1290;66906;-75
2022/12/08 07:17:51;;;;;;;39.00;28.10;;;;;;;0.48;100.00;98522.56;105967;1291;60115;-75
2022/12/08 07:20:17;;;;;;;37.20;29.60;;;;;;;0.55;100.00;98527.38;105926;1291;60094;-74
2022/12/08 07:22:50;;;;;;;43.90;34.30;;;;;;;0.62;100.00;98519.28;105921;1282;60077;-73
2022/12/08 07:25:16;;;;;;;39.40;30.00;;;;;;;0.71;100.00;98520.36;105922;1287;59650;-74
2022/12/08 07:27:42;;;;;;;45.50;31.30;;;;;;;0.79;100.00;98517.45;105936;1283;59785;-74
2022/12/08 07:30:09;;;;;;;49.10;32.10;;;;;;;0.85;100.00;98516.17;105943;1291;60086;-75
2022/12/08 07:32:37;;;;;;;41.30;32.00;;;;;;;0.94;100.00;98519.56;105773;1283;62562;-75
2022/12/08 07:35:05;;;;;;;42.90;31.80;;;;;;;1.02;100.00;98515.23;105917;1299;59592;-74
2022/12/08 07:37:36;;;;;;;48.50;33.60;;;;;;;1.11;100.00;98519.48;105759;1292;59736;-75
2022/12/08 07:40:05;;;;;;;53.20;36.80;;;;;;;1.18;100.00;98515.20;105910;1289;68090;-74
2022/12/08 07:42:31;;;;;;;50.60;33.60;;;;;;;1.26;100.00;98512.77;105693;1295;61223;-75
2022/12/08 07:44:57;;;;;;;38.40;31.30;;;;;;;1.35;100.00;98514.05;105648;1287;59690;-75
2022/12/08 07:47:23;;;;;;;39.00;30.80;;;;;;;1.42;100.00;98512.20;105936;1290;59663;-75
2022/12/08 07:49:49;;;;;;;40.90;30.40;;;;;;;1.50;100.00;98514.52;105937;1284;59670;-75
2022/12/08 07:52:15;;;;;;;40.60;31.10;;;;;;;1.55;100.00;98512.23;105942;1295;59854;-75
2022/12/08 07:54:41;;;;;;;46.10;35.60;;;;;;;1.62;100.00;98512.32;105671;1296;60158;-74
2022/12/08 07:57:08;;;;;;;39.30;30.60;;;;;;;1.69;100.00;98509.39;105899;1292;60725;-74
2022/12/08 07:59:34;;;;;;;36.80;29.90;;;;;;;1.78;100.00;98513.80;105903;1290;59704;-74
2022/12/08 08:02:00;;;;;;;51.00;35.90;;;;;;;1.88;100.00;98511.83;105943;1291;59756;-73
2022/12/08 08:04:26;;;;;;;60.40;41.50;;;;;;;1.98;100.00;98513.88;105929;1297;59893;-74
2022/12/08 08:06:53;;;;;;;61.80;42.90;;;;;;;2.08;100.00;98514.88;105939;1290;59737;-74
2022/12/08 08:09:19;;;;;;;64.20;45.50;;;;;;;2.18;100.00;98514.30;105936;1295;59737;-76
2022/12/08 08:11:45;;;;;;;61.50;46.30;;;;;;;2.28;100.00;98516.55;105976;1287;59774;-75
2022/12/08 08:14:11;;;;;;;71.20;43.10;;;;;;;2.36;100.00;98508.64;105725;1291;65553;-75
2022/12/08 08:16:37;;;;;;;62.60;42.10;;;;;;;2.44;100.00;98507.48;105943;1289;59743;-75
2022/12/08 08:19:03;;;;;;;52.10;39.70;;;;;;;2.49;100.00;98503.21;105937;1292;60597;-75
2022/12/08 08:21:29;;;;;;;55.20;40.00;;;;;;;2.55;100.00;98503.65;105925;1287;59856;-75
2022/12/08 08:23:55;;;;;;;56.40;40.80;;;;;;;2.62;100.00;98501.58;105954;1287;59731;-75
2022/12/08 08:26:21;;;;;;;54.80;38.30;;;;;;;2.72;100.00;98499.77;105194;1291;1002197;-75
2022/12/08 08:28:48;;;;;;;45.40;33.60;;;;;;;2.82;100.00;98498.64;105941;1287;60024;-74
2022/12/08 08:31:14;;;;;;;44.20;30.40;;;;;;;2.94;100.00;98495.48;105910;1291;59789;-74
2022/12/08 08:33:41;;;;;;;42.10;30.00;;;;;;;3.03;100.00;98492.43;105928;1291;59975;-75
2022/12/08 08:36:08;;;;;;;45.00;31.50;;;;;;;3.11;100.00;98492.10;105932;1291;59604;-75
2022/12/08 08:38:38;;;;;;;44.30;31.40;;;;;;;3.19;100.00;98496.84;105935;1290;59938;-75
2022/12/08 08:41:06;;;;;;;;;;;;;;;3.23;100.00;98497.00;105939;1287;60348;-74
2022/12/08 08:43:32;;;;;;;49.00;29.30;;;;;;;3.24;100.00;98502.40;105951;1287;65295;-74
2022/12/08 08:45:59;;;;;;;47.00;29.80;;;;;;;3.25;100.00;98503.25;105932;1295;59785;-75
2022/12/08 08:48:28;;;;;;;47.80;31.60;;;;;;;3.28;100.00;98504.69;105662;1295;59704;-74
2022/12/08 08:50:54;;;;;;;54.30;32.70;;;;;;;3.32;100.00;98507.30;105948;1290;68052;-72
2022/12/08 08:53:20;;;;;;;49.00;32.60;;;;;;;3.37;100.00;98506.02;105943;1289;59760;-75
2022/12/08 08:55:48;;;;;;;53.80;34.10;;;;;;;3.44;100.00;98508.33;105934;1291;65168;-74
2022/12/08 08:58:14;;;;;;;47.50;32.30;;;;;;;3.51;100.00;98510.46;105925;1291;59664;-74
2022/12/08 09:00:39;;;;;;;43.00;29.20;;;;;;;3.57;100.00;98507.75;105971;1292;59670;-74
2022/12/08 09:03:06;;;;;;;41.50;29.30;;;;;;;3.61;100.00;98504.24;105942;1293;60294;-74
2022/12/08 09:05:32;;;;;;;39.20;27.20;;;;;;;3.66;100.00;98505.90;105930;1292;59776;-75
2022/12/08 09:07:57;;;;;;;33.40;23.90;;;;;;;3.72;100.00;98503.52;105893;1280;59757;-75
2022/12/08 09:10:24;;;;;;;32.80;23.30;;;;;;;3.76;100.00;98495.45;105921;1290;59627;-75
2022/12/08 09:12:50;;;;;;;29.50;21.40;;;;;;;3.80;100.00;98496.13;105928;1295;59650;-75
2022/12/08 09:15:16;;;;;;;29.90;21.30;;;;;;;3.85;100.00;98490.46;105903;1295;60093;-73
2022/12/08 09:17:42;;;;;;;30.20;21.90;;;;;;;3.90;100.00;98490.52;105913;1289;59782;-74
2022/12/08 09:20:09;;;;;;;29.30;22.20;;;;;;;3.99;100.00;98486.77;105962;1292;60232;-76
2022/12/08 09:22:35;;;;;;;32.00;23.50;;;;;;;4.08;100.00;98485.45;105930;1292;61485;-75
2022/12/08 09:25:04;;;;;;;28.40;23.20;;;;;;;4.18;100.00;98483.57;105949;1297;59762;-74
2022/12/08 09:27:30;;;;;;;30.80;21.50;;;;;;;4.30;100.00;98482.44;105936;1280;69935;-73
2022/12/08 09:29:56;;;;;;;24.30;18.80;;;;;;;4.41;100.00;98478.19;105911;1292;73677;-73
2022/12/08 09:32:22;;;;;;;26.40;20.80;;;;;;;4.51;100.00;98471.02;105910;1293;59847;-73
2022/12/08 09:34:48;;;;;;;20.30;15.60;;;;;;;4.60;100.00;98468.42;105915;1290;59732;-73
2022/12/08 09:37:14;;;;;;;20.50;16.20;;;;;;;4.69;100.00;98465.52;105951;1289;61206;-74
2022/12/08 09:39:40;;;;;;;20.70;16.20;;;;;;;4.75;100.00;98463.64;105931;1292;59834;-74
2022/12/08 09:42:08;;;;;;;20.50;15.50;;;;;;;4.79;100.00;98458.34;105903;1289;59795;-74
2022/12/08 09:44:49;;;;;;;23.10;16.50;;;;;;;4.82;100.00;98456.94;105914;1295;59795;-74
2022/12/08 09:47:38;;;;;;;20.90;16.80;;;;;;;4.85;100.00;98454.48;105925;1284;59723;-73
2022/12/08 09:50:29;;;;;;;21.30;14.10;;;;;;;4.90;100.00;98448.73;105926;1287;67280;-74
2022/12/08 09:53:07;;;;;;;19.80;14.30;;;;;;;4.95;100.00;98443.06;105911;1290;61196;-74
2022/12/08 09:55:41;;;;;;;18.40;14.20;;;;;;;4.94;100.00;98442.58;105647;1288;64587;-74
2022/12/08 09:58:18;;;;;;;17.60;14.00;;;;;;;4.90;100.00;98441.90;105921;1292;59819;-74
2022/12/08 10:00:44;;;;;;;21.10;16.40;;;;;;;4.87;100.00;98444.02;105763;1292;59660;-73
2022/12/08 10:03:12;;;;;;;20.30;15.40;;;;;;;4.84;100.00;98446.27;105893;1292;59744;-73
2022/12/08 10:05:46;;;;;;;16.70;12.80;;;;;;;4.81;100.00;98442.36;105900;1290;60109;-73
2022/12/08 10:08:23;;;;;;;18.50;15.70;;;;;;;4.76;100.00;98446.52;105703;1292;73027;-74
2022/12/08 10:10:58;;;;;;;17.50;13.00;;;;;;;4.71;100.00;98448.32;105891;1290;59587;-73
2022/12/08 10:13:34;;;;;;;17.70;13.60;;;;;;;4.69;100.00;98448.11;105861;1297;59637;-73
2022/12/08 10:16:26;;;;;;;19.30;13.70;;;;;;;4.66;100.00;98445.08;105894;1287;67957;-74
2022/12/08 10:19:22;;;;;;;19.00;13.30;;;;;;;4.65;100.00;98442.71;105909;1291;59743;-73
2022/12/08 10:21:49;;;;;;;14.10;10.70;;;;;;;4.61;100.00;98443.08;105152;1301;64140;-74
2022/12/08 10:24:36;;;;;;;15.30;9.40;;;;;;;4.56;100.00;98442.06;105360;1304;59820;-75
2022/12/08 10:27:02;;;;;;;8.80;7.40;;;;;;;4.51;100.00;98439.34;105424;1296;60833;-75
2022/12/08 10:29:28;;;;;;;11.10;8.10;;;;;;;4.49;100.00;98435.95;105446;1287;60271;-75
2022/12/08 10:31:57;;;;;;;11.30;8.40;;;;;;;4.46;100.00;98425.39;105430;1287;59922;-74
2022/12/08 10:34:23;;;;;;;10.40;8.10;;;;;;;4.40;100.00;98427.05;105433;1303;65257;-75
2022/12/08 10:36:56;;;;;;;9.30;6.90;;;;;;;4.38;100.00;98430.35;105426;1294;59816;-76
2022/12/08 10:39:34;;;;;;;10.00;7.70;;;;;;;4.34;100.00;98431.73;105273;1300;59793;-76
2022/12/08 10:42:16;;;;;;;9.30;6.80;;;;;;;4.32;100.00;98433.08;105482;1301;66442;-75
2022/12/08 10:45:07;;;;;;;11.80;7.80;;;;;;;4.29;100.00;98430.27;105442;1301;61041;-75
2022/12/08 10:47:37;;;;;;;10.30;7.80;;;;;;;4.27;100.00;98426.36;105344;1296;139616;-75
2022/12/08 10:50:40;;;;;;;12.80;8.60;;;;;;;4.27;100.00;98427.21;105277;1290;60095;-75
2022/12/08 10:53:06;;;;;;;9.60;8.20;;;;;;;4.25;100.00;98425.19;104906;1305;59744;-74
2022/12/08 10:55:43;;;;;;;10.60;8.00;;;;;;;4.24;100.00;98424.02;104906;1303;59845;-75
2022/12/08 10:58:32;;;;;;;9.30;7.40;;;;;;;4.22;100.00;98422.35;104899;1303;60960;-76
2022/12/08 11:01:22;;;;;;;9.80;7.00;;;;;;;4.19;100.00;98421.60;105237;1295;63762;-76
2022/12/08 11:03:57;;;;;;;10.80;8.50;;;;;;;4.17;100.00;98418.23;105244;1298;59905;-75
2022/12/08 11:06:30;;;;;;;9.40;7.60;;;;;;;4.14;100.00;98421.54;105287;1295;60091;-76
2022/12/08 11:09:02;;;;;;;9.60;7.70;;;;;;;4.11;100.00;98417.99;105298;1290;67072;-75
2022/12/08 11:11:38;;;;;;;10.00;7.50;;;;;;;4.08;100.00;98416.71;105281;1305;61141;-75
2022/12/08 11:14:07;;;;;;;11.00;7.70;;;;;;;4.06;100.00;98419.61;105259;1303;65185;-77
2022/12/08 11:16:34;;;;;;;10.60;7.90;;;;;;;4.06;100.00;98421.95;105238;1298;59860;-74
2022/12/08 11:19:05;;;;;;;11.60;7.40;;;;;;;4.05;100.00;98419.00;105286;1305;59667;-76
2022/12/08 11:21:36;;;;;;;14.40;10.10;;;;;;;4.02;100.00;98420.17;105310;1295;68039;-76
2022/12/08 11:24:24;;;;;;;16.20;9.30;;;;;;;4.00;100.00;98424.70;105213;1302;60864;-74
2022/12/08 11:27:03;;;;;;;10.20;8.20;;;;;;;3.98;100.00;98424.25;105286;1298;64769;-75
2022/12/08 11:29:32;;;;;;;11.60;9.30;;;;;;;3.97;100.00;98425.01;105387;1298;59843;-76
2022/12/08 11:32:03;;;;;;;14.30;10.90;;;;;;;3.96;100.00;98423.48;105912;1287;59731;-75